sensor_id;sensor_type;location;lat;lon;timestamp;pressure;altitude;pressure_sealevel;temperature;humidity
84413;BME280;74611;53.106;8.778;2024-01-10T00:01:23;103738.97;;;-6.91;90.46
84413;BME280;74611;53.106;8.778;2024-01-10T00:03:53;103740.72;;;-6.98;89.57
84413;BME280;74611;53.106;8.778;2024-01-10T00:06:18;103740.75;;;-7.01;88.69
84413;BME280;74611;53.106;8.778;2024-01-10T00:08:44;103738.13;;;-7.04;88.90
84413;BME280;74611;53.106;8.778;2024-01-10T00:11:10;103738.09;;;-7.02;90.42
84413;BME280;74611;53.106;8.778;2024-01-10T00:13:35;103735.53;;;-7.10;88.93
84413;BME280;74611;53.106;8.778;2024-01-10T00:16:01;103727.72;;;-7.11;89.22
84413;BME280;74611;53.106;8.778;2024-01-10T00:18:26;103730.31;;;-7.05;90.12
84413;BME280;74611;53.106;8.778;2024-01-10T00:20:52;103725.09;;;-7.13;90.06
84413;BME280;74611;53.106;8.778;2024-01-10T00:23:21;103720.75;;;-7.12;90.21
84413;BME280;74611;53.106;8.778;2024-01-10T00:25:47;103719.91;;;-7.16;88.76
84413;BME280;74611;53.106;8.778;2024-01-10T00:28:13;103713.81;;;-7.19;88.86
84413;BME280;74611;53.106;8.778;2024-01-10T00:30:39;103709.47;;;-7.11;89.37
84413;BME280;74611;53.106;8.778;2024-01-10T00:33:05;103711.22;;;-7.27;90.16
84413;BME280;74611;53.106;8.778;2024-01-10T00:35:31;103706.84;;;-7.17;89.66
84413;BME280;74611;53.106;8.778;2024-01-10T00:37:57;103702.53;;;-7.18;89.25
84413;BME280;74611;53.106;8.778;2024-01-10T00:40:23;103696.44;;;-7.17;89.44
84413;BME280;74611;53.106;8.778;2024-01-10T00:42:48;103696.44;;;-7.19;89.40
84413;BME280;74611;53.106;8.778;2024-01-10T00:45:15;103693.84;;;-7.25;89.73
84413;BME280;74611;53.106;8.778;2024-01-10T00:47:41;103690.38;;;-7.31;89.93
84413;BME280;74611;53.106;8.778;2024-01-10T00:50:07;103683.44;;;-7.31;90.13
84413;BME280;74611;53.106;8.778;2024-01-10T00:52:33;103679.06;;;-7.26;90.66
84413;BME280;74611;53.106;8.778;2024-01-10T00:54:58;103678.19;;;-7.26;91.06
84413;BME280;74611;53.106;8.778;2024-01-10T00:57:24;103672.09;;;-7.28;91.16
84413;BME280;74611;53.106;8.778;2024-01-10T00:59:49;103665.19;;;-7.31;91.91
84413;BME280;74611;53.106;8.778;2024-01-10T01:02:15;103670.41;;;-7.35;91.58
84413;BME280;74611;53.106;8.778;2024-01-10T01:04:40;103673.00;;;-7.38;91.52
84413;BME280;74611;53.106;8.778;2024-01-10T01:07:06;103669.53;;;-7.39;91.62
84413;BME280;74611;53.106;8.778;2024-01-10T01:09:32;103679.94;;;-7.30;91.24
84413;BME280;74611;53.106;8.778;2024-01-10T01:11:57;103667.78;;;-7.29;90.14
84413;BME280;74611;53.106;8.778;2024-01-10T01:14:23;103661.72;;;-7.37;89.40
84413;BME280;74611;53.106;8.778;2024-01-10T01:16:48;103671.25;;;-7.35;89.76
84413;BME280;74611;53.106;8.778;2024-01-10T01:19:14;103673.84;;;-7.39;90.62
84413;BME280;74611;53.106;8.778;2024-01-10T01:21:39;103668.66;;;-7.30;89.36
84413;BME280;74611;53.106;8.778;2024-01-10T01:24:05;103681.69;;;-7.33;90.54
84413;BME280;74611;53.106;8.778;2024-01-10T01:26:31;103673.00;;;-7.40;90.09
84413;BME280;74611;53.106;8.778;2024-01-10T01:28:56;103674.75;;;-7.40;90.78
84413;BME280;74611;53.106;8.778;2024-01-10T01:31:22;103679.09;;;-7.38;89.76
84413;BME280;74611;53.106;8.778;2024-01-10T01:33:47;103681.69;;;-7.36;89.82
84413;BME280;74611;53.106;8.778;2024-01-10T01:36:13;103688.63;;;-7.37;89.82
84413;BME280;74611;53.106;8.778;2024-01-10T01:38:38;103689.50;;;-7.32;89.30
84413;BME280;74611;53.106;8.778;2024-01-10T01:41:04;103679.97;;;-7.37;89.76
84413;BME280;74611;53.106;8.778;2024-01-10T01:43:32;103685.19;;;-7.37;90.38
84413;BME280;74611;53.106;8.778;2024-01-10T01:45:57;103692.09;;;-7.39;89.39
84413;BME280;74611;53.106;8.778;2024-01-10T01:48:24;103685.19;;;-7.37;90.11
84413;BME280;74611;53.106;8.778;2024-01-10T01:50:57;103682.56;;;-7.40;89.62
84413;BME280;74611;53.106;8.778;2024-01-10T01:53:23;103684.31;;;-7.44;89.51
84413;BME280;74611;53.106;8.778;2024-01-10T01:55:50;103685.16;;;-7.48;88.58
84413;BME280;74611;53.106;8.778;2024-01-10T01:58:16;103688.66;;;-7.49;88.99
84413;BME280;74611;53.106;8.778;2024-01-10T02:00:42;103683.44;;;-7.50;90.07
84413;BME280;74611;53.106;8.778;2024-01-10T02:03:09;103682.56;;;-7.58;89.98
84413;BME280;74611;53.106;8.778;2024-01-10T02:05:35;103681.69;;;-7.56;91.37
84413;BME280;74611;53.106;8.778;2024-01-10T02:08:01;103686.06;;;-7.50;91.33
84413;BME280;74611;53.106;8.778;2024-01-10T02:10:27;103677.38;;;-7.52;92.07
84413;BME280;74611;53.106;8.778;2024-01-10T02:12:53;103684.28;;;-7.54;90.71
84413;BME280;74611;53.106;8.778;2024-01-10T02:15:18;103686.91;;;-7.53;89.59
84413;BME280;74611;53.106;8.778;2024-01-10T02:17:44;103683.41;;;-7.52;90.54
84413;BME280;74611;53.106;8.778;2024-01-10T02:20:14;103685.19;;;-7.46;89.87
84413;BME280;74611;53.106;8.778;2024-01-10T02:22:41;103680.84;;;-7.49;90.89
84413;BME280;74611;53.106;8.778;2024-01-10T02:25:13;103675.63;;;-7.49;89.96
84413;BME280;74611;53.106;8.778;2024-01-10T02:27:40;103672.13;;;-7.49;90.78
84413;BME280;74611;53.106;8.778;2024-01-10T02:30:07;103674.72;;;-7.48;91.35
84413;BME280;74611;53.106;8.778;2024-01-10T02:32:33;103659.09;;;-7.48;90.57
84413;BME280;74611;53.106;8.778;2024-01-10T02:34:59;103664.34;;;-7.46;91.00
84413;BME280;74611;53.106;8.778;2024-01-10T02:37:24;103665.19;;;-7.44;90.93
84413;BME280;74611;53.106;8.778;2024-01-10T02:39:50;103664.34;;;-7.42;90.19
84413;BME280;74611;53.106;8.778;2024-01-10T02:42:17;103662.59;;;-7.43;91.64
84413;BME280;74611;53.106;8.778;2024-01-10T02:44:42;103659.13;;;-7.45;91.09
84413;BME280;74611;53.106;8.778;2024-01-10T02:47:09;103659.09;;;-7.48;89.98
84413;BME280;74611;53.106;8.778;2024-01-10T02:49:34;103657.38;;;-7.49;92.21
84413;BME280;74611;53.106;8.778;2024-01-10T02:52:00;103658.25;;;-7.50;93.26
84413;BME280;74611;53.106;8.778;2024-01-10T02:54:25;103650.44;;;-7.48;91.24
84413;BME280;74611;53.106;8.778;2024-01-10T02:56:51;103642.63;;;-7.48;92.04
84413;BME280;74611;53.106;8.778;2024-01-10T02:59:17;103652.19;;;-7.55;92.57
84413;BME280;74611;53.106;8.778;2024-01-10T03:01:43;103653.94;;;-7.52;92.23
84413;BME280;74611;53.106;8.778;2024-01-10T03:04:09;103650.44;;;-7.51;92.17
84413;BME280;74611;53.106;8.778;2024-01-10T03:06:35;103657.41;;;-7.50;92.72
84413;BME280;74611;53.106;8.778;2024-01-10T03:09:00;103656.53;;;-7.51;92.15
84413;BME280;74611;53.106;8.778;2024-01-10T03:11:26;103658.25;;;-7.51;92.23
84413;BME280;74611;53.106;8.778;2024-01-10T03:14:01;103653.03;;;-7.47;93.50
84413;BME280;74611;53.106;8.778;2024-01-10T03:16:27;103646.06;;;-7.48;91.97
84413;BME280;74611;53.106;8.778;2024-01-10T03:18:52;103654.78;;;-7.44;93.27
84413;BME280;74611;53.106;8.778;2024-01-10T03:21:18;103648.69;;;-7.40;93.93
84413;BME280;74611;53.106;8.778;2024-01-10T03:23:57;103646.06;;;-7.43;91.66
84413;BME280;74611;53.106;8.778;2024-01-10T03:26:23;103639.16;;;-7.46;90.73
84413;BME280;74611;53.106;8.778;2024-01-10T03:28:49;103640.03;;;-7.48;91.28
84413;BME280;74611;53.106;8.778;2024-01-10T03:31:15;103638.28;;;-7.49;91.62
84413;BME280;74611;53.106;8.778;2024-01-10T03:33:41;103640.00;;;-7.51;92.15
84413;BME280;74611;53.106;8.778;2024-01-10T03:36:11;103635.66;;;-7.54;91.12
84413;BME280;74611;53.106;8.778;2024-01-10T03:38:37;103636.56;;;-7.55;92.95
84413;BME280;74611;53.106;8.778;2024-01-10T03:41:03;103627.00;;;-7.48;91.38
84413;BME280;74611;53.106;8.778;2024-01-10T03:43:28;103624.41;;;-7.48;91.33
84413;BME280;74611;53.106;8.778;2024-01-10T03:45:54;103626.97;;;-7.45;90.53
84413;BME280;74611;53.106;8.778;2024-01-10T03:48:20;103626.13;;;-7.47;90.70
84413;BME280;74611;53.106;8.778;2024-01-10T03:50:45;103625.25;;;-7.51;91.13
84413;BME280;74611;53.106;8.778;2024-01-10T03:53:11;103628.75;;;-7.46;91.33
84413;BME280;74611;53.106;8.778;2024-01-10T03:55:37;103630.47;;;-7.46;91.02
84413;BME280;74611;53.106;8.778;2024-01-10T03:58:03;103637.41;;;-7.45;90.01
84413;BME280;74611;53.106;8.778;2024-01-10T04:00:28;103639.16;;;-7.50;90.54
84413;BME280;74611;53.106;8.778;2024-01-10T04:02:54;103643.50;;;-7.57;91.17
84413;BME280;74611;53.106;8.778;2024-01-10T04:05:19;103640.88;;;-7.60;90.90
84413;BME280;74611;53.106;8.778;2024-01-10T04:07:46;103646.97;;;-7.58;90.95
84413;BME280;74611;53.106;8.778;2024-01-10T04:10:12;103640.88;;;-7.55;91.95
84413;BME280;74611;53.106;8.778;2024-01-10T04:12:45;103632.19;;;-7.54;91.15
84413;BME280;74611;53.106;8.778;2024-01-10T04:15:12;103628.72;;;-7.52;91.12
84413;BME280;74611;53.106;8.778;2024-01-10T04:17:38;103631.34;;;-7.55;91.91
84413;BME280;74611;53.106;8.778;2024-01-10T04:20:04;103627.00;;;-7.53;91.61
84413;BME280;74611;53.106;8.778;2024-01-10T04:22:30;103613.09;;;-7.56;91.86
84413;BME280;74611;53.106;8.778;2024-01-10T04:25:00;103621.78;;;-7.60;90.72
84413;BME280;74611;53.106;8.778;2024-01-10T04:27:26;103623.53;;;-7.62;90.80
84413;BME280;74611;53.106;8.778;2024-01-10T04:29:53;103627.88;;;-7.60;91.60
84413;BME280;74611;53.106;8.778;2024-01-10T04:32:18;103633.94;;;-7.58;91.61
84413;BME280;74611;53.106;8.778;2024-01-10T04:34:44;103634.81;;;-7.53;91.21
84413;BME280;74611;53.106;8.778;2024-01-10T04:37:13;103631.34;;;-7.55;90.90
84413;BME280;74611;53.106;8.778;2024-01-10T04:39:39;103627.88;;;-7.52;91.09
84413;BME280;74611;53.106;8.778;2024-01-10T04:42:05;103631.34;;;-7.58;90.15
84413;BME280;74611;53.106;8.778;2024-01-10T04:44:31;103631.34;;;-7.53;89.47
84413;BME280;74611;53.106;8.778;2024-01-10T04:46:57;103634.81;;;-7.56;90.88
84413;BME280;74611;53.106;8.778;2024-01-10T04:49:25;103620.06;;;-7.57;90.78
84413;BME280;74611;53.106;8.778;2024-01-10T04:51:50;103617.44;;;-7.55;91.29
84413;BME280;74611;53.106;8.778;2024-01-10T04:54:16;103620.94;;;-7.55;90.85
84413;BME280;74611;53.106;8.778;2024-01-10T04:56:42;103615.69;;;-7.52;90.00
84413;BME280;74611;53.106;8.778;2024-01-10T04:59:07;103620.06;;;-7.51;90.10
84413;BME280;74611;53.106;8.778;2024-01-10T05:01:33;103621.78;;;-7.53;90.62
84413;BME280;74611;53.106;8.778;2024-01-10T05:03:59;103616.56;;;-7.51;90.60
84413;BME280;74611;53.106;8.778;2024-01-10T05:06:24;103616.59;;;-7.48;92.76
84413;BME280;74611;53.106;8.778;2024-01-10T05:08:50;103612.25;;;-7.51;91.24
84413;BME280;74611;53.106;8.778;2024-01-10T05:11:16;103610.50;;;-7.50;92.14
84413;BME280;74611;53.106;8.778;2024-01-10T05:13:44;103606.16;;;-7.48;92.73
84413;BME280;74611;53.106;8.778;2024-01-10T05:16:10;103607.03;;;-7.46;90.81
84413;BME280;74611;53.106;8.778;2024-01-10T05:18:35;103604.41;;;-7.48;91.76
84413;BME280;74611;53.106;8.778;2024-01-10T05:21:02;103600.94;;;-7.45;92.47
84413;BME280;74611;53.106;8.778;2024-01-10T05:23:29;103602.66;;;-7.47;92.49
84413;BME280;74611;53.106;8.778;2024-01-10T05:25:55;103610.50;;;-7.50;90.46
84413;BME280;74611;53.106;8.778;2024-01-10T05:28:20;103607.88;;;-7.49;91.65
84413;BME280;74611;53.106;8.778;2024-01-10T05:30:46;103607.00;;;-7.45;91.65
84413;BME280;74611;53.106;8.778;2024-01-10T05:33:12;103599.19;;;-7.43;91.44
84413;BME280;74611;53.106;8.778;2024-01-10T05:35:40;103606.13;;;-7.45;91.24
84413;BME280;74611;53.106;8.778;2024-01-10T05:38:06;103603.53;;;-7.47;91.25
84413;BME280;74611;53.106;8.778;2024-01-10T05:40:32;103600.94;;;-7.47;91.38
84413;BME280;74611;53.106;8.778;2024-01-10T05:42:58;103602.69;;;-7.46;90.50
84413;BME280;74611;53.106;8.778;2024-01-10T05:45:27;103601.78;;;-7.43;90.86
84413;BME280;74611;53.106;8.778;2024-01-10T05:47:54;103606.16;;;-7.47;91.79
84413;BME280;74611;53.106;8.778;2024-01-10T05:50:20;103611.34;;;-7.47;91.35
84413;BME280;74611;53.106;8.778;2024-01-10T05:52:46;103600.94;;;-7.45;90.81
84413;BME280;74611;53.106;8.778;2024-01-10T05:55:11;103601.81;;;-7.45;90.73
84413;BME280;74611;53.106;8.778;2024-01-10T05:57:37;103603.53;;;-7.47;90.74
84413;BME280;74611;53.106;8.778;2024-01-10T06:00:04;103600.94;;;-7.45;92.04
84413;BME280;74611;53.106;8.778;2024-01-10T06:02:30;103602.69;;;-7.46;92.22
84413;BME280;74611;53.106;8.778;2024-01-10T06:04:56;103597.47;;;-7.44;91.32
84413;BME280;74611;53.106;8.778;2024-01-10T06:07:21;103595.72;;;-7.42;90.81
84413;BME280;74611;53.106;8.778;2024-01-10T06:09:47;103592.25;;;-7.43;90.55
84413;BME280;74611;53.106;8.778;2024-01-10T06:12:13;103590.53;;;-7.44;89.57
84413;BME280;74611;53.106;8.778;2024-01-10T06:14:39;103590.53;;;-7.44;90.92
84413;BME280;74611;53.106;8.778;2024-01-10T06:17:05;103584.44;;;-7.47;90.87
84413;BME280;74611;53.106;8.778;2024-01-10T06:19:31;103586.16;;;-7.48;92.20
84413;BME280;74611;53.106;8.778;2024-01-10T06:21:57;103575.75;;;-7.48;91.63
84413;BME280;74611;53.106;8.778;2024-01-10T06:24:23;103576.63;;;-7.47;90.33
84413;BME280;74611;53.106;8.778;2024-01-10T06:26:48;103587.03;;;-7.43;91.30
84413;BME280;74611;53.106;8.778;2024-01-10T06:29:15;103584.44;;;-7.43;90.98
84413;BME280;74611;53.106;8.778;2024-01-10T06:31:41;103590.53;;;-7.47;89.72
84413;BME280;74611;53.106;8.778;2024-01-10T06:34:07;103581.84;;;-7.46;90.80
84413;BME280;74611;53.106;8.778;2024-01-10T06:36:33;103594.88;;;-7.49;91.67
84413;BME280;74611;53.106;8.778;2024-01-10T06:38:58;103594.88;;;-7.46;91.66
84413;BME280;74611;53.106;8.778;2024-01-10T06:41:24;103587.94;;;-7.48;91.57
84413;BME280;74611;53.106;8.778;2024-01-10T06:43:51;103585.31;;;-7.42;90.97
84413;BME280;74611;53.106;8.778;2024-01-10T06:46:16;103592.25;;;-7.44;91.35
84413;BME280;74611;53.106;8.778;2024-01-10T06:48:42;103598.31;;;-7.45;90.83
84413;BME280;74611;53.106;8.778;2024-01-10T06:51:14;103590.50;;;-7.45;91.13
84413;BME280;74611;53.106;8.778;2024-01-10T06:53:40;103589.63;;;-7.41;90.74
84413;BME280;74611;53.106;8.778;2024-01-10T06:56:06;103593.97;;;-7.40;90.68
84413;BME280;74611;53.106;8.778;2024-01-10T06:58:32;103592.22;;;-7.41;90.86
84413;BME280;74611;53.106;8.778;2024-01-10T07:00:59;103600.03;;;-7.41;91.36
84413;BME280;74611;53.106;8.778;2024-01-10T07:03:30;103600.06;;;-7.43;91.67
84413;BME280;74611;53.106;8.778;2024-01-10T07:05:55;103602.66;;;-7.40;90.66
84413;BME280;74611;53.106;8.778;2024-01-10T07:08:22;103592.22;;;-7.41;91.99
84413;BME280;74611;53.106;8.778;2024-01-10T07:10:48;103592.22;;;-7.41;91.74
84413;BME280;74611;53.106;8.778;2024-01-10T07:13:13;103595.72;;;-7.38;91.35
84413;BME280;74611;53.106;8.778;2024-01-10T07:15:39;103590.47;;;-7.35;91.01
84413;BME280;74611;53.106;8.778;2024-01-10T07:18:05;103596.59;;;-7.40;90.57
84413;BME280;74611;53.106;8.778;2024-01-10T07:20:31;103600.91;;;-7.39;90.56
84413;BME280;74611;53.106;8.778;2024-01-10T07:22:58;103603.56;;;-7.44;90.74
84413;BME280;74611;53.106;8.778;2024-01-10T07:25:24;103608.72;;;-7.36;91.18
84413;BME280;74611;53.106;8.778;2024-01-10T07:27:51;103613.09;;;-7.35;91.17
84413;BME280;74611;53.106;8.778;2024-01-10T07:30:17;103609.59;;;-7.39;90.36
84413;BME280;74611;53.106;8.778;2024-01-10T07:32:45;103613.09;;;-7.40;90.22
84413;BME280;74611;53.106;8.778;2024-01-10T07:35:12;103616.53;;;-7.36;90.59
84413;BME280;74611;53.106;8.778;2024-01-10T07:37:39;103611.34;;;-7.41;91.50
84413;BME280;74611;53.106;8.778;2024-01-10T07:40:09;103619.16;;;-7.41;91.59
84413;BME280;74611;53.106;8.778;2024-01-10T07:42:37;103626.97;;;-7.36;91.30
84413;BME280;74611;53.106;8.778;2024-01-10T07:45:03;103618.28;;;-7.38;90.92
84413;BME280;74611;53.106;8.778;2024-01-10T07:47:36;103626.13;;;-7.40;90.59
84413;BME280;74611;53.106;8.778;2024-01-10T07:50:09;103624.38;;;-7.38;90.85
84413;BME280;74611;53.106;8.778;2024-01-10T07:52:35;103634.81;;;-7.44;90.91
84413;BME280;74611;53.106;8.778;2024-01-10T07:55:01;103630.44;;;-7.39;91.41
84413;BME280;74611;53.106;8.778;2024-01-10T07:57:30;103635.66;;;-7.36;91.08
84413;BME280;74611;53.106;8.778;2024-01-10T07:59:56;103635.63;;;-7.33;89.79
84413;BME280;74611;53.106;8.778;2024-01-10T08:02:21;103636.53;;;-7.31;91.38
84413;BME280;74611;53.106;8.778;2024-01-10T08:04:47;103622.59;;;-7.33;91.33
84413;BME280;74611;53.106;8.778;2024-01-10T08:07:13;103630.44;;;-7.31;91.01
84413;BME280;74611;53.106;8.778;2024-01-10T08:09:39;103626.09;;;-7.29;89.97
84413;BME280;74611;53.106;8.778;2024-01-10T08:12:04;103633.03;;;-7.27;89.83
84413;BME280;74611;53.106;8.778;2024-01-10T08:14:30;103629.56;;;-7.29;91.85
84413;BME280;74611;53.106;8.778;2024-01-10T08:16:56;103631.31;;;-7.29;91.59
84413;BME280;74611;53.106;8.778;2024-01-10T08:19:27;103627.81;;;-7.30;91.42
84413;BME280;74611;53.106;8.778;2024-01-10T08:21:55;103635.66;;;-7.27;90.36
84413;BME280;74611;53.106;8.778;2024-01-10T08:24:22;103633.00;;;-7.24;90.86
84413;BME280;74611;53.106;8.778;2024-01-10T08:26:47;103637.38;;;-7.23;90.22
84413;BME280;74611;53.106;8.778;2024-01-10T08:29:20;103620.88;;;-7.20;90.31
84413;BME280;74611;53.106;8.778;2024-01-10T08:31:47;103625.19;;;-7.19;90.03
84413;BME280;74611;53.106;8.778;2024-01-10T08:34:13;103627.81;;;-7.18;90.71
84413;BME280;74611;53.106;8.778;2024-01-10T08:36:38;103620.00;;;-7.18;91.51
84413;BME280;74611;53.106;8.778;2024-01-10T08:39:04;103626.94;;;-7.17;90.66
84413;BME280;74611;53.106;8.778;2024-01-10T08:41:30;103621.72;;;-7.12;91.09
84413;BME280;74611;53.106;8.778;2024-01-10T08:43:56;103626.06;;;-7.11;90.73
84413;BME280;74611;53.106;8.778;2024-01-10T08:46:25;103630.38;;;-7.09;91.03
84413;BME280;74611;53.106;8.778;2024-01-10T08:48:50;103628.66;;;-7.10;91.13
84413;BME280;74611;53.106;8.778;2024-01-10T08:51:16;103624.31;;;-7.08;90.25
84413;BME280;74611;53.106;8.778;2024-01-10T08:53:45;103622.53;;;-7.04;91.72
84413;BME280;74611;53.106;8.778;2024-01-10T08:56:10;103618.22;;;-7.05;89.75
84413;BME280;74611;53.106;8.778;2024-01-10T08:58:37;103619.94;;;-6.98;90.15
84413;BME280;74611;53.106;8.778;2024-01-10T09:01:04;103614.69;;;-6.95;90.71
84413;BME280;74611;53.106;8.778;2024-01-10T09:03:33;103615.56;;;-6.90;91.39
84413;BME280;74611;53.106;8.778;2024-01-10T09:05:59;103624.25;;;-6.89;91.25
84413;BME280;74611;53.106;8.778;2024-01-10T09:08:25;103623.38;;;-6.90;90.48
84413;BME280;74611;53.106;8.778;2024-01-10T09:10:50;103626.84;;;-6.89;89.61
84413;BME280;74611;53.106;8.778;2024-01-10T09:13:16;103628.53;;;-6.79;90.04
84413;BME280;74611;53.106;8.778;2024-01-10T09:15:42;103617.25;;;-6.77;89.76
84413;BME280;74611;53.106;8.778;2024-01-10T09:18:08;103613.78;;;-6.83;89.88
84413;BME280;74611;53.106;8.778;2024-01-10T09:20:34;103614.63;;;-6.78;89.61
84413;BME280;74611;53.106;8.778;2024-01-10T09:23:01;103606.78;;;-6.68;90.79
84413;BME280;74611;53.106;8.778;2024-01-10T09:25:27;103601.53;;;-6.63;90.61
84413;BME280;74611;53.106;8.778;2024-01-10T09:27:54;103606.75;;;-6.69;90.47
84413;BME280;74611;53.106;8.778;2024-01-10T09:30:20;103603.28;;;-6.67;90.50
84413;BME280;74611;53.106;8.778;2024-01-10T09:32:46;103601.56;;;-6.72;89.85
84413;BME280;74611;53.106;8.778;2024-01-10T09:35:12;103604.16;;;-6.71;89.21
84413;BME280;74611;53.106;8.778;2024-01-10T09:37:38;103604.09;;;-6.56;89.75
84413;BME280;74611;53.106;8.778;2024-01-10T09:40:05;103617.16;;;-6.62;89.17
84413;BME280;74611;53.106;8.778;2024-01-10T09:42:34;103607.59;;;-6.63;88.66
84413;BME280;74611;53.106;8.778;2024-01-10T09:45:03;103610.13;;;-6.49;87.77
84413;BME280;74611;53.106;8.778;2024-01-10T09:47:31;103612.75;;;-6.51;89.10
84413;BME280;74611;53.106;8.778;2024-01-10T09:49:57;103618.81;;;-6.46;88.11
84413;BME280;74611;53.106;8.778;2024-01-10T09:52:26;103616.22;;;-6.52;89.05
84413;BME280;74611;53.106;8.778;2024-01-10T09:54:56;103611.84;;;-6.45;89.11
84413;BME280;74611;53.106;8.778;2024-01-10T09:57:25;103614.50;;;-6.48;89.13
84413;BME280;74611;53.106;8.778;2024-01-10T09:59:52;103609.25;;;-6.47;88.45
84413;BME280;74611;53.106;8.778;2024-01-10T10:02:19;103619.66;;;-6.41;88.25
84413;BME280;74611;53.106;8.778;2024-01-10T10:05:08;103610.97;;;-6.43;88.09
84413;BME280;74611;53.106;8.778;2024-01-10T10:07:49;103600.50;;;-6.35;88.58
84413;BME280;74611;53.106;8.778;2024-01-10T10:10:17;103605.72;;;-6.35;87.75
84413;BME280;74611;53.106;8.778;2024-01-10T10:12:49;103600.47;;;-6.29;88.31
84413;BME280;74611;53.106;8.778;2024-01-10T10:15:19;103610.88;;;-6.25;87.36
84413;BME280;74611;53.106;8.778;2024-01-10T10:17:48;103612.66;;;-6.31;88.56
84413;BME280;74611;53.106;8.778;2024-01-10T10:20:21;103608.31;;;-6.31;87.87
84413;BME280;74611;53.106;8.778;2024-01-10T10:23:10;103604.78;;;-6.25;88.24
84413;BME280;74611;53.106;8.778;2024-01-10T10:25:43;103605.69;;;-6.31;88.81
84413;BME280;74611;53.106;8.778;2024-01-10T10:28:09;103603.00;;;-6.20;89.23
84413;BME280;74611;53.106;8.778;2024-01-10T10:30:34;103598.59;;;-6.15;88.25
84413;BME280;74611;53.106;8.778;2024-01-10T10:33:04;103599.34;;;-5.96;87.05
84413;BME280;74611;53.106;8.778;2024-01-10T10:35:33;103602.09;;;-6.15;87.98
84413;BME280;74611;53.106;8.778;2024-01-10T10:37:59;103600.22;;;-5.96;86.30
84413;BME280;74611;53.106;8.778;2024-01-10T10:40:25;103594.13;;;-5.96;86.65
84413;BME280;74611;53.106;8.778;2024-01-10T10:42:57;103597.59;;;-5.97;86.99
84413;BME280;74611;53.106;8.778;2024-01-10T10:45:23;103589.69;;;-5.88;86.40
84413;BME280;74611;53.106;8.778;2024-01-10T10:47:59;103586.31;;;-6.01;87.65
84413;BME280;74611;53.106;8.778;2024-01-10T10:50:35;103588.00;;;-5.92;87.52
84413;BME280;74611;53.106;8.778;2024-01-10T10:53:03;103581.00;;;-5.89;86.82
84413;BME280;74611;53.106;8.778;2024-01-10T10:55:29;103580.88;;;-5.77;86.99
84413;BME280;74611;53.106;8.778;2024-01-10T10:57:56;103582.66;;;-5.83;87.03
84413;BME280;74611;53.106;8.778;2024-01-10T11:00:22;103579.94;;;-5.71;86.53
84413;BME280;74611;53.106;8.778;2024-01-10T11:03:04;103570.38;;;-5.72;87.06
84413;BME280;74611;53.106;8.778;2024-01-10T11:05:31;103577.34;;;-5.73;87.28
84413;BME280;74611;53.106;8.778;2024-01-10T11:07:56;103566.88;;;-5.71;87.63
84413;BME280;74611;53.106;8.778;2024-01-10T11:10:32;103565.91;;;-5.63;86.63
84413;BME280;74611;53.106;8.778;2024-01-10T11:21:24;103562.19;;;-5.39;86.00
84413;BME280;74611;53.106;8.778;2024-01-10T11:23:58;103558.53;;;-5.26;83.38
84413;BME280;74611;53.106;8.778;2024-01-10T11:26:24;103555.09;;;-5.28;85.17
84413;BME280;74611;53.106;8.778;2024-01-10T11:28:50;103559.38;;;-5.21;84.13
84413;BME280;74611;53.106;8.778;2024-01-10T11:31:27;103552.44;;;-5.25;84.98
84413;BME280;74611;53.106;8.778;2024-01-10T11:33:53;103550.66;;;-5.20;84.18
84413;BME280;74611;53.106;8.778;2024-01-10T11:36:19;103557.28;;;-4.93;80.40
84413;BME280;74611;53.106;8.778;2024-01-10T11:41:35;103551.47;;;-5.16;86.91
84413;BME280;74611;53.106;8.778;2024-01-10T11:46:50;103549.44;;;-4.92;84.53
84413;BME280;74611;53.106;8.778;2024-01-10T11:49:19;103550.22;;;-4.85;83.18
84413;BME280;74611;53.106;8.778;2024-01-10T11:51:46;103555.03;;;-4.57;80.44
84413;BME280;74611;53.106;8.778;2024-01-10T11:57:22;103545.63;;;-4.68;81.21
84413;BME280;74611;53.106;8.778;2024-01-10T11:59:52;103547.50;;;-4.79;87.55
84413;BME280;74611;53.106;8.778;2024-01-10T12:02:19;103542.28;;;-4.79;86.61
84413;BME280;74611;53.106;8.778;2024-01-10T12:04:45;103544.66;;;-4.63;83.06
84413;BME280;74611;53.106;8.778;2024-01-10T12:07:12;103548.78;;;-4.48;82.26
84413;BME280;74611;53.106;8.778;2024-01-10T12:09:38;103550.56;;;-4.50;84.11
84413;BME280;74611;53.106;8.778;2024-01-10T12:12:05;103548.81;;;-4.49;81.46
84413;BME280;74611;53.106;8.778;2024-01-10T12:14:31;103532.16;;;-4.42;79.96
84413;BME280;74611;53.106;8.778;2024-01-10T12:16:59;103544.19;;;-4.31;77.55
84413;BME280;74611;53.106;8.778;2024-01-10T12:19:25;103532.13;;;-4.39;81.89
84413;BME280;74611;53.106;8.778;2024-01-10T12:21:51;103528.69;;;-4.44;85.76
84413;BME280;74611;53.106;8.778;2024-01-10T12:24:20;103539.97;;;-4.39;83.59
84413;BME280;74611;53.106;8.778;2024-01-10T12:26:47;103534.56;;;-4.29;80.04
84413;BME280;74611;53.106;8.778;2024-01-10T12:29:17;103535.41;;;-4.28;81.34
84413;BME280;74611;53.106;8.778;2024-01-10T12:31:43;103530.41;;;-4.42;85.28
84413;BME280;74611;53.106;8.778;2024-01-10T12:34:10;103531.06;;;-4.29;79.97
84413;BME280;74611;53.106;8.778;2024-01-10T12:36:36;103530.28;;;-4.34;82.94
84413;BME280;74611;53.106;8.778;2024-01-10T12:39:05;103526.78;;;-4.33;82.08
84413;BME280;74611;53.106;8.778;2024-01-10T12:41:33;103529.09;;;-4.15;77.22
84413;BME280;74611;53.106;8.778;2024-01-10T12:44:00;103511.81;;;-4.25;83.63
84413;BME280;74611;53.106;8.778;2024-01-10T12:46:29;103509.00;;;-4.15;78.37
84413;BME280;74611;53.106;8.778;2024-01-10T12:49:03;103510.88;;;-4.23;82.06
84413;BME280;74611;53.106;8.778;2024-01-10T12:51:30;103509.97;;;-4.22;84.42
84413;BME280;74611;53.106;8.778;2024-01-10T12:53:57;103507.28;;;-4.17;82.54
84413;BME280;74611;53.106;8.778;2024-01-10T12:56:28;103509.88;;;-4.14;82.92
84413;BME280;74611;53.106;8.778;2024-01-10T12:58:54;103510.66;;;-4.11;79.43
84413;BME280;74611;53.106;8.778;2024-01-10T13:01:23;103505.50;;;-4.14;82.49
84413;BME280;74611;53.106;8.778;2024-01-10T13:03:49;103514.22;;;-4.13;80.61
84413;BME280;74611;53.106;8.778;2024-01-10T13:06:15;103502.13;;;-4.22;84.08